createdAt,value
2022-11-28T00:04:19.482Z,35.1
2022-11-28T00:09:19.454Z,38.1
2022-11-28T00:14:19.464Z,34.2
2022-11-28T00:19:19.472Z,26.3
2022-11-28T00:24:19.530Z,33.7
2022-11-28T00:29:19.505Z,35.5
2022-11-28T00:34:19.468Z,35.5
2022-11-28T00:39:19.482Z,37.7
2022-11-28T00:44:19.477Z,31.6
2022-11-28T00:49:19.474Z,30.1
2022-11-28T00:54:19.487Z,32.0
2022-11-28T00:59:19.472Z,42.4
2022-11-28T01:04:19.481Z,42.4
2022-11-28T01:09:19.479Z,23.4
2022-11-28T01:14:19.484Z,34.0
2022-11-28T01:19:19.472Z,33.2
2022-11-28T01:24:19.483Z,33.5
2022-11-28T01:29:19.474Z,35.3
2022-11-28T01:34:19.476Z,35.3
2022-11-28T01:39:19.492Z,30.4
2022-11-28T01:44:19.476Z,35.0
2022-11-28T01:49:19.490Z,41.0
2022-11-28T01:54:19.472Z,38.1
2022-11-28T01:59:19.487Z,34.7
2022-11-28T02:04:19.476Z,34.7
2022-11-28T02:09:19.490Z,42.8
2022-11-28T02:14:19.479Z,40.2
2022-11-28T02:19:19.487Z,32.3
2022-11-28T02:24:19.489Z,36.1
2022-11-28T02:29:19.482Z,41.7
2022-11-28T02:34:19.498Z,41.7
2022-11-28T02:39:19.506Z,52.8
2022-11-28T02:44:19.492Z,45.4
2022-11-28T02:49:19.516Z,29.4
2022-11-28T02:54:19.498Z,43.9
2022-11-28T02:59:19.497Z,44.8
2022-11-28T03:04:19.493Z,44.8
2022-11-28T03:09:19.503Z,34.7
2022-11-28T03:14:19.505Z,24.3
2022-11-28T03:19:19.482Z,32.1
2022-11-28T03:24:19.506Z,22.1
2022-11-28T03:29:19.496Z,20.6
2022-11-28T03:34:19.494Z,20.6
2022-11-28T03:39:19.504Z,26.6
2022-11-28T03:44:19.488Z,34.8
2022-11-28T03:49:19.503Z,38.3
2022-11-28T03:54:19.511Z,42.3
2022-11-28T03:59:19.507Z,30.9
2022-11-28T04:04:19.500Z,30.9
2022-11-28T04:09:19.512Z,35.0
2022-11-28T04:14:19.509Z,33.4
2022-11-28T04:19:19.500Z,36.5
2022-11-28T04:24:19.507Z,43.5
2022-11-28T04:29:19.507Z,32.5
2022-11-28T04:34:19.511Z,32.5
2022-11-28T04:39:19.512Z,41.1
2022-11-28T04:44:19.520Z,37.4
2022-11-28T04:49:19.523Z,29.3
2022-11-28T04:54:19.521Z,58.2
2022-11-28T04:59:19.524Z,56.7
2022-11-28T05:04:19.527Z,56.7
2022-11-28T05:09:19.526Z,61.4
2022-11-28T05:14:19.532Z,44.0
2022-11-28T05:19:19.531Z,46.4
2022-11-28T05:24:19.530Z,46.4
2022-11-28T05:29:19.538Z,60.2
2022-11-28T05:34:19.532Z,60.2
2022-11-28T05:39:19.519Z,52.5
2022-11-28T05:44:22.835Z,55.7
2022-11-28T05:49:19.545Z,57.6
2022-11-28T05:54:19.539Z,52.8
2022-11-28T05:59:19.558Z,47.3
2022-11-28T06:04:19.616Z,47.3
2022-11-28T06:09:24.546Z,50.1
2022-11-28T06:14:19.570Z,70.3
2022-11-28T06:19:19.547Z,69.0
2022-11-28T06:24:19.535Z,48.3
2022-11-28T06:29:19.571Z,47.8
2022-11-28T06:34:19.534Z,47.8
2022-11-28T06:39:19.539Z,57.8
2022-11-28T06:44:19.558Z,44.9
2022-11-28T06:49:19.532Z,77.2
2022-11-28T06:54:19.542Z,44.9
2022-11-28T06:59:19.555Z,60.5
2022-11-28T07:04:19.539Z,60.5
2022-11-28T07:09:19.530Z,54.9
2022-11-28T07:14:19.551Z,34.9
2022-11-28T07:19:19.538Z,39.5
2022-11-28T07:24:19.558Z,30.0
2022-11-28T07:29:19.562Z,27.1
2022-11-28T07:34:19.553Z,27.1
2022-11-28T07:39:19.563Z,33.8
2022-11-28T07:44:19.552Z,30.4
2022-11-28T07:49:19.546Z,38.1
2022-11-28T07:54:19.559Z,31.8
2022-11-28T07:59:19.553Z,34.7
2022-11-28T08:04:19.595Z,34.7
2022-11-28T08:09:19.571Z,32.7
2022-11-28T08:14:19.505Z,33.7
2022-11-28T08:19:23.104Z,30.7
2022-11-28T08:24:19.555Z,27.6
2022-11-28T08:29:19.568Z,20.6
2022-11-28T08:34:19.554Z,20.6
2022-11-28T08:39:24.384Z,22.5
2022-11-28T08:44:19.537Z,19.5
2022-11-28T08:49:19.563Z,16.4
2022-11-28T08:54:19.571Z,27.3
2022-11-28T08:59:19.576Z,23.6
2022-11-28T09:04:19.666Z,23.6
2022-11-28T09:09:19.570Z,40.0
2022-11-28T09:14:19.568Z,24.3
2022-11-28T09:19:19.560Z,30.8
2022-11-28T09:24:19.569Z,28.4
2022-11-28T09:29:19.552Z,24.0
2022-11-28T09:34:19.583Z,24.0
2022-11-28T09:39:19.568Z,30.8
2022-11-28T09:44:19.570Z,25.5
2022-11-28T09:49:19.555Z,26.3
2022-11-28T09:54:19.611Z,31.7
2022-11-28T09:59:19.550Z,38.5
2022-11-28T10:04:19.667Z,38.5
2022-11-28T10:09:19.569Z,27.0
2022-11-28T10:14:19.553Z,33.4
2022-11-28T10:19:52.136Z,20.5
2022-11-28T10:24:19.564Z,19.6
2022-11-28T10:29:19.582Z,23.8
2022-11-28T10:34:19.544Z,23.8
2022-11-28T10:39:19.593Z,18.7
2022-11-28T10:44:21.588Z,29.8
2022-11-28T10:49:19.559Z,31.9
2022-11-28T10:54:19.585Z,24.3
2022-11-28T10:59:19.582Z,23.5
2022-11-28T11:04:19.582Z,23.5
2022-11-28T11:09:19.588Z,15.7
2022-11-28T11:14:19.574Z,36.8
2022-11-28T11:19:19.575Z,29.4
2022-11-28T11:24:19.581Z,25.3
2022-11-28T11:29:19.563Z,22.6
2022-11-28T11:34:19.579Z,22.6
2022-11-28T11:39:19.603Z,25.8
2022-11-28T11:44:19.579Z,33.5
2022-11-28T11:49:19.561Z,34.9
2022-11-28T11:54:19.586Z,65.7
2022-11-28T11:59:19.568Z,45.7
2022-11-28T12:04:43.858Z,45.7
2022-11-28T12:09:19.583Z,34.1
2022-11-28T12:14:19.572Z,28.2
2022-11-28T12:19:19.602Z,33.2
2022-11-28T12:24:19.586Z,22.4
2022-11-28T12:34:19.574Z,39.5
2022-11-28T12:39:19.570Z,45.7
2022-11-28T12:44:19.565Z,50.5
2022-11-28T12:49:19.571Z,35.5
2022-11-28T12:54:19.586Z,44.0
2022-11-28T12:59:19.563Z,48.2
2022-11-28T13:04:19.603Z,48.2
2022-11-28T13:09:19.558Z,54.5
2022-11-28T13:14:19.582Z,49.7
2022-11-28T13:19:19.544Z,50.4
2022-11-28T13:24:19.559Z,59.2
2022-11-28T13:29:19.583Z,61.5
2022-11-28T13:34:19.552Z,61.5
2022-11-28T13:39:19.581Z,71.4
2022-11-28T13:44:19.581Z,52.1
2022-11-28T13:49:20.513Z,80.2
2022-11-28T13:54:19.539Z,62.9
2022-11-28T13:59:19.584Z,78.2
2022-11-28T14:04:19.549Z,78.2
2022-11-28T14:09:19.566Z,75.3
2022-11-28T14:14:19.566Z,95.4
2022-11-28T14:19:19.555Z,99.8
2022-11-28T14:29:19.578Z,81.4
2022-11-28T14:34:19.591Z,81.4
2022-11-28T14:39:19.596Z,83.2
2022-11-28T14:44:19.591Z,103.9
2022-11-28T14:49:19.587Z,100.8
2022-11-28T14:54:19.598Z,58.0
2022-11-28T14:59:19.599Z,82.9
2022-11-28T15:04:19.588Z,82.9
2022-11-28T15:09:19.594Z,89.9
2022-11-28T15:14:19.600Z,69.8
2022-11-28T15:19:19.591Z,77.4
2022-11-28T15:24:19.606Z,69.2
2022-11-28T15:29:19.595Z,76.5
2022-11-28T15:34:19.601Z,76.5
2022-11-28T15:39:19.615Z,58.5
2022-11-28T15:44:19.591Z,63.3
2022-11-28T15:49:19.585Z,75.5
2022-11-28T15:54:19.584Z,89.7
2022-11-28T15:59:19.583Z,74.3
2022-11-28T16:04:19.617Z,74.3
2022-11-28T16:09:19.650Z,58.7
2022-11-28T16:14:19.586Z,48.2
2022-11-28T16:19:19.596Z,59.8
2022-11-28T16:24:19.600Z,63.0
2022-11-28T16:29:19.601Z,76.1
2022-11-28T16:34:19.594Z,76.1
2022-11-28T16:39:19.595Z,77.4
2022-11-28T16:44:19.594Z,76.6
2022-11-28T16:49:19.607Z,93.5
2022-11-28T16:54:19.607Z,99.2
2022-11-28T16:59:19.586Z,98.2
2022-11-28T17:04:19.619Z,98.2
2022-11-28T17:09:19.588Z,98.6
2022-11-28T17:14:19.609Z,91.5
2022-11-28T17:19:19.594Z,84.8
2022-11-28T17:24:19.671Z,70.5
2022-11-28T17:29:19.601Z,68.2
2022-11-28T17:34:19.608Z,68.2
2022-11-28T17:39:19.616Z,62.1
2022-11-28T17:44:19.598Z,63.6
2022-11-28T17:49:19.598Z,65.1
2022-11-28T17:54:19.613Z,61.6
2022-11-28T17:59:19.579Z,68.4
2022-11-28T18:04:19.599Z,68.4
2022-11-28T18:09:19.576Z,57.6
2022-11-28T18:14:20.019Z,52.7
2022-11-28T18:19:19.608Z,44.8
2022-11-28T18:24:19.600Z,34.1
2022-11-28T18:29:19.633Z,40.2
2022-11-28T18:34:19.631Z,40.2
2022-11-28T18:39:19.611Z,50.6
2022-11-28T18:44:19.596Z,57.1
2022-11-28T18:49:19.602Z,45.8
2022-11-28T18:54:21.571Z,34.2
2022-11-28T18:59:19.589Z,49.3
2022-11-28T19:04:19.616Z,49.3
2022-11-28T19:09:19.616Z,37.7
2022-11-28T19:14:19.620Z,38.1
2022-11-28T19:19:19.626Z,35.7
2022-11-28T19:24:19.619Z,36.1
2022-11-28T19:29:19.638Z,41.3
2022-11-28T19:34:19.621Z,41.3
2022-11-28T19:39:19.607Z,44.3
2022-11-28T19:44:19.626Z,38.0
2022-11-28T19:49:19.618Z,31.8
2022-11-28T19:54:19.921Z,30.3
2022-11-28T19:59:19.632Z,21.5
2022-11-28T20:04:19.611Z,21.5
2022-11-28T20:09:19.625Z,31.0
2022-11-28T20:14:19.603Z,25.8
2022-11-28T20:19:19.630Z,33.8
2022-11-28T20:24:19.596Z,20.4
2022-11-28T20:29:19.690Z,22.5
2022-11-28T20:34:19.636Z,22.5
2022-11-28T20:39:19.637Z,24.4
2022-11-28T20:44:19.650Z,25.9
2022-11-28T20:49:19.636Z,15.2
2022-11-28T20:54:19.639Z,19.4
2022-11-28T20:59:19.628Z,21.4
2022-11-28T21:04:19.659Z,21.4
2022-11-28T21:09:19.643Z,26.7
2022-11-28T21:14:19.632Z,25.4
2022-11-28T21:19:19.630Z,21.7
2022-11-28T21:24:19.636Z,30.0
2022-11-28T21:29:19.629Z,33.4
2022-11-28T21:34:19.820Z,33.4
2022-11-28T21:39:19.635Z,38.1
2022-11-28T21:44:19.669Z,41.4
2022-11-28T21:49:19.641Z,43.1
2022-11-28T21:54:19.642Z,32.3
2022-11-28T21:59:19.615Z,30.6
2022-11-28T22:04:19.669Z,30.6
2022-11-28T22:09:19.632Z,38.3
2022-11-28T22:14:19.648Z,31.4
2022-11-28T22:19:19.652Z,31.7
2022-11-28T22:24:19.665Z,34.1
2022-11-28T22:29:19.649Z,31.2
2022-11-28T22:34:19.658Z,31.2
2022-11-28T22:39:19.641Z,32.6
2022-11-28T22:44:19.635Z,34.1
2022-11-28T22:49:19.658Z,32.8
2022-11-28T22:54:19.637Z,39.5
2022-11-28T22:59:19.661Z,41.9
2022-11-28T23:04:19.667Z,41.9
2022-11-28T23:09:19.650Z,47.1
2022-11-28T23:14:19.678Z,40.2
2022-11-28T23:19:19.638Z,32.1
2022-11-28T23:24:19.661Z,36.5
2022-11-28T23:29:19.666Z,37.8
2022-11-28T23:34:19.661Z,37.8
2022-11-28T23:39:19.645Z,38.8
2022-11-28T23:44:19.690Z,43.0
2022-11-28T23:49:19.670Z,38.2
2022-11-28T23:54:19.644Z,34.7
2022-11-28T23:59:19.642Z,43.4
